메인 페이지
METAR-TAF:

METAR-TAF

공항 :

엘살바도르 국제공항

엘살바도르, 엘살바도르

위도: 13-26N, 경도: 089-03W, 고도: 25m

현재 날씨관측

예보는 15분 전, 12:30시(UTC)에 발표되었습니다.
북북동3kt북북서풍과 북동풍을 오가는
온도 25°C
습도 83%
기압 1012 hPa
시정 10km 이상
고도 1700ft 상공 구름 조금
고도 3700ft 상공 구름 조금, 적란운.

METAR: MSLP 221230Z 02003KT 340V050 9999 FEW017 FEW037CB 25/22 Q1012 NOSIG CB SW

시각: 06:45 (12:45 UTC)

예보

예보는 3 시간 20분 전, 09:25시(UTC)에 발표되었습니다.
예보 대상 시간: 22일 12시부터 23일 12시까지 (UTC)
북동5kt
시정 10km 이상
고도 2300ft 상공 구름 조금
22일 1800시부터 (UTC)
남서9kt
고도 2700ft 상공 구름 보통
고도 3700ft 상공 구름 조금, 적란운.
일시적
23일 03시부터 23일 06시까지 (UTC)
동북동8kt
시정: 8000m
고도 2700ft 상공 구름 보통
고도 3700ft 상공 구름 조금, 적란운.
고도 6000ft 상공 구름 많음
뇌우, 비

TAF: MSLP 220925Z 2212/2312 05005KT 9999 FEW023 TX32/2219Z TN24/2310Z FM221800 23009KT SCT027 FEW037CB TEMPO 2303/2306 07008KT 8000 TSRA SCT027 FEW037CB BKN060

4,000개 이상의 공항 관측 자료 및 예보 (METAR 및 TAF 보고).

지도상에서 검색 가능한 기상관측소가 노란 점과 빨간 점으로 표시되어 있습니다.

기상관측소 명을 보려면 표시 위로 마우스를 이동하세요.

날씨 관측과 예보를 보려면 클릭하세요.

지도 변경 : 확대하려면 엑스 표시가 있는 녹색 버튼, 축소하려면 빼기 표시가 있는 녹색 버튼, 다음 페이지의 지도를 보려면 녹색 화살표를 클릭하세요.


METAR-TAF: